Main page
METAR-TAF:

METAR-TAF

Airports :

Saint-Dizier – Robinson Air Base

Saint-Dizier, France

latitude: 48-38N, longitude: 004-54E, elevation: 139 m

Current weather observation

The report was made 39 minutes ago, at 13:00 UTC
Wind 10 kt from the Northeast, varying between North and East
Temperature 24°C
Humidity 44%
Pressure 1027 hPa
Visibility: 4200 m

METAR: LFSI 281300Z AUTO 04010KT 360V090 9999 4200 NSC 24/11 Q1027

Time: 15:39 (13:39 UTC)

Forecast

The report was made 5 hours and 39 minutes ago, at 08:00 UTC
Forecast valid from 28 at 09 UTC to 29 at 09 UTC
Wind 5 kt from the North
Visibility 10 km or more
no clouds below 1500 m and no cumulonimbus
Temporary
from 28 at 14 UTC to 28 at 20 UTC
Wind 15 kt from the East/Northeast
Becoming
from 28 at 20 UTC to 28 at 22 UTC
Wind 10 kt from the East/Northeast

TAF: LFSI 280800Z 2809/2909 01005KT CAVOK TEMPO 2814/2820 06015KT BECMG 2820/2822 07010KT

Weather observations and forecasts of more than 4000 airports (METAR and TAF reports).

The available stations are represented by yellow and red dots on the map.

Hover mouse over dot to see the name of the station.

Then click to see weather observations and forecasts.

To change the map : click on the green buttons with a black cross to zoom in, on the green button with a dash to zoom out, or on the green arrows for adjacent maps.


METAR-TAF: